^^
Saratoga-Weather Station Historical Data
Daily Summary for June 30, 2021 Units:  Metric    English   Both
Daily Weekly Monthly Yearly Custom
  High: Low: Average:
Temperature: 16.6 °C 13.2 °C 14.5 °C
Dew Point: 14.7 °C 12 °C 13.1 °C
Humidity: 94% 81% 91%
Wind Speed: 19.5km/h 0km/h 4.5km/h
Wind Gust: 25.7km/h - -
Wind- - West
Pressure: 1015.2 hPa 1011.2 hPa -
Precipitation: 5.6 mm    
Historical Graphs
 
 
Tabular Data for June 30, 2021
Time Temperature Dew Point Pressure Wind Wind Speed Wind Gust Humidity Rainfall Rate (Hourly) solar
00:01 14.3 °C 13.2 °C 1011.5 hPa West 3.2 km/h 4.8 km/h 93% 0.0 mm 0 W/m2
00:06 14.2 °C 13.1 °C 1011.9 hPa WNW 1.4 km/h 1.6 km/h 93% 0.0 mm 0 W/m2
00:11 14.1 °C 13 °C 1011.9 hPa West 4.7 km/h 4.8 km/h 93% 0.0 mm 0 W/m2
00:16 14.1 °C 12.8 °C 1011.9 hPa West 1.4 km/h 4.8 km/h 92% 0.0 mm 0 W/m2
00:21 14 °C 12.7 °C 1011.9 hPa West 3.2 km/h 8 km/h 92% 0.0 mm 0 W/m2
00:26 14 °C 12.7 °C 1011.5 hPa West 4.7 km/h 9.7 km/h 92% 0.0 mm 0 W/m2
00:31 14 °C 12.7 °C 1011.5 hPa WNW 1.4 km/h 9.7 km/h 92% 0.0 mm 0 W/m2
00:36 14.1 °C 12.8 °C 1011.5 hPa Calm   3.2 km/h 92% 0.0 mm 0 W/m2
00:41 14 °C 12.7 °C 1011.9 hPa West 4.7 km/h 6.4 km/h 92% 0.0 mm 0 W/m2
00:46 14 °C 12.7 °C 1011.9 hPa Calm   4.8 km/h 92% 0.0 mm 0 W/m2
00:51 14 °C 12.7 °C 1011.9 hPa Calm   4.8 km/h 92% 0.0 mm 0 W/m2
00:56 14 °C 12.7 °C 1011.9 hPa WNW 3.2 km/h 6.4 km/h 92% 0.0 mm 0 W/m2
01:01 14.1 °C 12.8 °C 1011.9 hPa West 3.2 km/h 4.8 km/h 92% 0.0 mm 0 W/m2
01:06 14.1 °C 12.8 °C 1011.9 hPa WNW 1.4 km/h 4.8 km/h 92% 0.0 mm 0 W/m2
01:11 14.2 °C 12.8 °C 1011.9 hPa West 3.2 km/h 4.8 km/h 91% 0.0 mm 0 W/m2
01:16 14.3 °C 12.9 °C 1011.9 hPa Calm   1.6 km/h 91% 0.0 mm 0 W/m2
01:21 14.3 °C 12.9 °C 1011.9 hPa Calm   4.8 km/h 91% 0.0 mm 0 W/m2
01:26 14.2 °C 12.9 °C 1011.9 hPa Calm     92% 0.0 mm 0 W/m2
01:31 14.1 °C 12.8 °C 1011.9 hPa Calm   1.6 km/h 92% 0.0 mm 0 W/m2
01:36 14 °C 12.7 °C 1011.9 hPa Calm     92% 0.0 mm 0 W/m2
01:41 13.9 °C 12.6 °C 1011.9 hPa Calm   3.2 km/h 92% 0.0 mm 0 W/m2
01:46 13.9 °C 12.6 °C 1011.5 hPa WNW 6.4 km/h 6.4 km/h 92% 0.0 mm 0 W/m2
01:51 13.9 °C 12.8 °C 1011.5 hPa WNW 1.4 km/h 4.8 km/h 93% 0.0 mm 0 W/m2
01:56 14 °C 12.7 °C 1011.5 hPa SW 4.7 km/h 9.7 km/h 92% 0.0 mm 0 W/m2
02:01 14.1 °C 12.8 °C 1011.2 hPa NW 4.7 km/h 9.7 km/h 92% 0.0 mm 0 W/m2
02:06 14.1 °C 12.8 °C 1011.5 hPa NW 6.4 km/h 11.3 km/h 92% 0.0 mm 0 W/m2
02:11 14.1 °C 12.8 °C 1011.5 hPa WNW 11.1 km/h 11.3 km/h 92% 0.0 mm 0 W/m2
02:16 14.1 °C 12.8 °C 1011.5 hPa WNW 1.4 km/h 3.2 km/h 92% 0.0 mm 0 W/m2
02:21 14 °C 12.7 °C 1011.5 hPa West 3.2 km/h 11.3 km/h 92% 0.0 mm 0 W/m2
02:26 13.9 °C 12.8 °C 1011.2 hPa NW 3.2 km/h 4.8 km/h 93% 0.0 mm 0 W/m2
02:31 13.9 °C 12.8 °C 1011.5 hPa SW 3.2 km/h 11.3 km/h 93% 0.0 mm 0 W/m2
02:36 13.8 °C 12.7 °C 1011.5 hPa West 13 km/h 12.9 km/h 93% 0.0 mm 0 W/m2
02:41 13.8 °C 12.7 °C 1011.2 hPa WSW 7.9 km/h 8 km/h 93% 0.0 mm 0 W/m2
02:46 13.8 °C 12.7 °C 1011.5 hPa WNW 1.4 km/h 4.8 km/h 93% 0.0 mm 0 W/m2
02:51 13.7 °C 12.8 °C 1011.5 hPa West 6.4 km/h 8 km/h 94% 0.0 mm 0 W/m2
02:56 13.7 °C 12.6 °C 1011.5 hPa WSW 3.2 km/h 6.4 km/h 93% 0.0 mm 0 W/m2
03:01 13.6 °C 12.7 °C 1011.9 hPa West 11.1 km/h 11.3 km/h 94% 0.0 mm 0 W/m2
03:06 13.6 °C 12.7 °C 1011.9 hPa WNW 1.4 km/h 4.8 km/h 94% 0.0 mm 0 W/m2
03:11 13.6 °C 12.7 °C 1011.9 hPa WNW 1.4 km/h 3.2 km/h 94% 0.0 mm 0 W/m2
03:16 13.6 °C 12.7 °C 1011.9 hPa WNW 3.2 km/h 6.4 km/h 94% 0.0 mm 0 W/m2
03:21 13.6 °C 12.7 °C 1011.9 hPa Calm   1.6 km/h 94% 0.0 mm 0 W/m2
03:26 13.7 °C 12.8 °C 1011.9 hPa Calm   6.4 km/h 94% 0.0 mm 0 W/m2
03:31 13.7 °C 12.8 °C 1011.9 hPa WNW 4.7 km/h 8 km/h 94% 0.0 mm 0 W/m2
03:36 13.7 °C 12.8 °C 1011.9 hPa WSW 3.2 km/h 6.4 km/h 94% 0.0 mm 0 W/m2
03:41 13.7 °C 12.8 °C 1011.9 hPa SW 1.4 km/h 8 km/h 94% 0.0 mm 0 W/m2
03:46 13.7 °C 12.8 °C 1011.9 hPa WNW 1.4 km/h 3.2 km/h 94% 0.0 mm 0 W/m2
03:51 13.6 °C 12.7 °C 1011.9 hPa WSW 1.4 km/h 4.8 km/h 94% 0.0 mm 0 W/m2
03:56 13.6 °C 12.7 °C 1011.9 hPa Calm     94% 0.0 mm 0 W/m2
04:02 13.5 °C 12.6 °C 1011.9 hPa NW 1.4 km/h 4.8 km/h 94% 0.0 mm 0 W/m2
04:07 13.5 °C 12.6 °C 1011.9 hPa Calm   3.2 km/h 94% 0.0 mm 0 W/m2
04:12 13.5 °C 12.6 °C 1011.9 hPa Calm   1.6 km/h 94% 0.0 mm 0 W/m2
04:17 13.5 °C 12.6 °C 1011.9 hPa Calm   3.2 km/h 94% 0.0 mm 0 W/m2
04:22 13.5 °C 12.6 °C 1011.9 hPa North 1.4 km/h 4.8 km/h 94% 0.0 mm 0 W/m2
04:27 13.5 °C 12.6 °C 1011.9 hPa NE 3.2 km/h 3.2 km/h 94% 0.0 mm 0 W/m2
04:32 13.6 °C 12.7 °C 1011.9 hPa NNE 3.2 km/h 3.2 km/h 94% 0.0 mm 0 W/m2
04:37 13.6 °C 12.7 °C 1011.9 hPa Calm   1.6 km/h 94% 0.0 mm 0 W/m2
04:42 13.6 °C 12.7 °C 1011.9 hPa Calm   1.6 km/h 94% 0.0 mm 0 W/m2
04:47 13.6 °C 12.7 °C 1011.9 hPa Calm   3.2 km/h 94% 0.0 mm 0 W/m2
04:52 13.6 °C 12.7 °C 1011.9 hPa NNW 1.4 km/h 4.8 km/h 94% 0.0 mm 0 W/m2
04:57 13.6 °C 12.7 °C 1012.2 hPa Calm     94% 0.0 mm 0 W/m2
05:02 13.7 °C 12.8 °C 1011.9 hPa Calm   4.8 km/h 94% 0.0 mm 0 W/m2
05:07 13.6 °C 12.7 °C 1011.9 hPa South 1.4 km/h 9.7 km/h 94% 0.0 mm 0 W/m2
05:12 13.6 °C 12.5 °C 1011.9 hPa West 1.4 km/h 3.2 km/h 93% 0.0 mm 0 W/m2
05:17 13.6 °C 12.5 °C 1011.9 hPa West 3.2 km/h 4.8 km/h 93% 0.0 mm 0 W/m2
05:22 13.6 °C 12.5 °C 1011.9 hPa Calm   3.2 km/h 93% 0.0 mm 0 W/m2
05:27 13.6 °C 12.5 °C 1011.9 hPa NW 1.4 km/h 4.8 km/h 93% 0.0 mm 0 W/m2
05:32 13.6 °C 12.5 °C 1011.9 hPa North 3.2 km/h 3.2 km/h 93% 0.0 mm 0 W/m2
05:37 13.6 °C 12.5 °C 1011.9 hPa NNW 3.2 km/h 4.8 km/h 93% 0.0 mm 0 W/m2
05:42 13.6 °C 12.5 °C 1011.9 hPa NNE 1.4 km/h 4.8 km/h 93% 0.0 mm 0 W/m2
05:47 13.6 °C 12.5 °C 1011.9 hPa Calm   3.2 km/h 93% 0.0 mm 7 W/m2
05:52 13.6 °C 12.5 °C 1011.9 hPa Calm   4.8 km/h 93% 0.0 mm 12 W/m2
05:57 13.6 °C 12.5 °C 1011.9 hPa NNW 1.4 km/h 3.2 km/h 93% 0.0 mm 16 W/m2
06:02 13.7 °C 12.6 °C 1011.5 hPa NW 1.4 km/h 8 km/h 93% 0.0 mm 19 W/m2
06:07 13.7 °C 12.6 °C 1011.9 hPa NW 3.2 km/h 6.4 km/h 93% 0.0 mm 21 W/m2
06:12 13.6 °C 12.5 °C 1011.9 hPa Calm   3.2 km/h 93% 0.0 mm 19 W/m2
06:17 13.7 °C 12.6 °C 1011.9 hPa NW 3.2 km/h 4.8 km/h 93% 0.0 mm 26 W/m2
06:22 13.7 °C 12.6 °C 1011.9 hPa NW 1.4 km/h 4.8 km/h 93% 0.0 mm 26 W/m2
06:27 13.7 °C 12.6 °C 1011.9 hPa Calm   6.4 km/h 93% 0.0 mm 32 W/m2
06:32 13.7 °C 12.6 °C 1011.9 hPa SW 6.4 km/h 9.7 km/h 93% 0.0 mm 30 W/m2
06:37 13.7 °C 12.6 °C 1011.9 hPa ENE 1.4 km/h 4.8 km/h 93% 0.0 mm 32 W/m2
06:42 13.7 °C 12.4 °C 1011.9 hPa NE 3.2 km/h 4.8 km/h 92% 0.0 mm 35 W/m2
06:47 13.8 °C 12.5 °C 1011.9 hPa NW 1.4 km/h 3.2 km/h 92% 0.0 mm 33 W/m2
06:52 13.8 °C 12.5 °C 1011.9 hPa NNW 4.7 km/h 8 km/h 92% 0.0 mm 30 W/m2
06:57 13.8 °C 12.5 °C 1011.9 hPa West 9.7 km/h 9.7 km/h 92% 0.0 mm 23 W/m2
07:02 13.8 °C 12.5 °C 1011.9 hPa NW 3.2 km/h 3.2 km/h 92% 0.0 mm 21 W/m2
07:07 13.8 °C 12.5 °C 1011.9 hPa Calm   3.2 km/h 92% 0.0 mm 30 W/m2
07:12 13.8 °C 12.5 °C 1011.9 hPa Calm   4.8 km/h 92% 0.0 mm 21 W/m2
07:17 13.9 °C 12.6 °C 1011.9 hPa Calm   1.6 km/h 92% 0.0 mm 28 W/m2
07:22 13.9 °C 12.6 °C 1011.9 hPa Calm   4.8 km/h 92% 0.0 mm 28 W/m2
07:28 13.9 °C 12.6 °C 1011.9 hPa Calm   3.2 km/h 92% 0.0 mm 33 W/m2
07:33 13.9 °C 12.6 °C 1011.9 hPa WNW 1.4 km/h 4.8 km/h 92% 0.0 mm 44 W/m2
07:38 13.9 °C 12.5 °C 1011.9 hPa ESE 1.4 km/h 4.8 km/h 91% 0.0 mm 74 W/m2
07:43 14 °C 12.6 °C 1011.9 hPa NW 1.4 km/h 3.2 km/h 91% 0.0 mm 102 W/m2
07:48 14.1 °C 12.7 °C 1011.9 hPa WNW 4.7 km/h 6.4 km/h 91% 0.0 mm 178 W/m2
07:53 14.3 °C 12.7 °C 1011.9 hPa NW 3.2 km/h 6.4 km/h 90% 0.0 mm 199 W/m2
07:58 14.4 °C 12.8 °C 1011.9 hPa NW 7.9 km/h 8 km/h 90% 0.0 mm 153 W/m2
08:03 14.5 °C 12.9 °C 1011.9 hPa Calm   6.4 km/h 90% 0.0 mm 174 W/m2
08:08 14.6 °C 13 °C 1011.9 hPa WNW 8 km/h 8 km/h 90% 0.0 mm 179 W/m2
08:13 14.7 °C 12.9 °C 1011.5 hPa WNW 4.7 km/h 4.8 km/h 89% 0.0 mm 283 W/m2
08:18 14.8 °C 13 °C 1011.5 hPa West 3.2 km/h 4.8 km/h 89% 0.0 mm 183 W/m2
08:23 14.8 °C 13 °C 1011.5 hPa WNW 6.4 km/h 6.4 km/h 89% 0.0 mm 167 W/m2
08:28 14.8 °C 13 °C 1011.5 hPa NW 1.4 km/h 4.8 km/h 89% 0.0 mm 246 W/m2
08:33 14.9 °C 12.9 °C 1011.5 hPa NW 1.4 km/h 4.8 km/h 88% 0.0 mm 265 W/m2
08:38 15.2 °C 13.2 °C 1011.5 hPa NW 1.4 km/h 11.3 km/h 88% 0.0 mm 237 W/m2
08:43 15.4 °C 13.2 °C 1011.5 hPa SW 7.9 km/h 8 km/h 87% 0.0 mm 221 W/m2
08:48 15.7 °C 13.5 °C 1011.5 hPa Calm   12.9 km/h 87% 0.0 mm 206 W/m2
08:53 15.8 °C 13.5 °C 1011.5 hPa West 9.7 km/h 19.3 km/h 86% 0.0 mm 278 W/m2
08:58 15.9 °C 13.4 °C 1011.5 hPa NW 4.7 km/h 4.8 km/h 85% 0.0 mm 253 W/m2
09:03 16 °C 13.5 °C 1011.2 hPa Calm   4.8 km/h 85% 0.0 mm 243 W/m2
09:08 16.1 °C 13.4 °C 1011.2 hPa NE 1.4 km/h 3.2 km/h 84% 0.0 mm 294 W/m2
09:13 16.1 °C 13.4 °C 1011.5 hPa SW 3.2 km/h 11.3 km/h 84% 0.0 mm 206 W/m2
09:18 16 °C 13.3 °C 1011.2 hPa WNW 1.4 km/h 6.4 km/h 84% 0.0 mm 190 W/m2
09:23 15.8 °C 13.3 °C 1011.5 hPa Calm   9.7 km/h 85% 0.0 mm 227 W/m2
09:28 15.8 °C 13.5 °C 1011.5 hPa NW 4.7 km/h 8 km/h 86% 0.0 mm 251 W/m2
09:33 15.8 °C 13.3 °C 1011.2 hPa North 3.2 km/h 6.4 km/h 85% 0.0 mm 220 W/m2
09:38 15.9 °C 13.6 °C 1011.5 hPa WNW 6.4 km/h 6.4 km/h 86% 0.0 mm 211 W/m2
09:43 15.9 °C 13.2 °C 1011.5 hPa NW 1.4 km/h 8 km/h 84% 0.0 mm 195 W/m2
09:48 15.9 °C 13.4 °C 1011.5 hPa ENE 3.2 km/h 4.8 km/h 85% 0.0 mm 185 W/m2
09:53 15.9 °C 13.4 °C 1011.5 hPa ENE 1.4 km/h 4.8 km/h 85% 0.0 mm 179 W/m2
09:58 16 °C 13.5 °C 1011.5 hPa NNE 1.4 km/h 4.8 km/h 85% 0.0 mm 190 W/m2
10:03 16.1 °C 13.4 °C 1011.5 hPa SW 1.4 km/h 9.7 km/h 84% 0.0 mm 179 W/m2
10:08 16.1 °C 13.6 °C 1011.5 hPa West 13 km/h 12.9 km/h 85% 0.0 mm 163 W/m2
10:13 16 °C 13.5 °C 1011.5 hPa NW 4.7 km/h 9.7 km/h 85% 0.0 mm 162 W/m2
10:18 15.9 °C 13.2 °C 1011.5 hPa NNW 4.7 km/h 6.4 km/h 84% 0.0 mm 181 W/m2
10:23 16 °C 13.5 °C 1011.5 hPa SW 1.4 km/h 6.4 km/h 85% 0.0 mm 190 W/m2
10:28 15.9 °C 13.6 °C 1011.5 hPa West 3.2 km/h 8 km/h 86% 0.0 mm 158 W/m2
10:33 15.8 °C 13.8 °C 1011.5 hPa NNW 1.4 km/h 3.2 km/h 88% 0.0 mm 130 W/m2
10:38 15.7 °C 13.9 °C 1011.5 hPa Calm   4.8 km/h 89% 0.0 mm 114 W/m2
10:43 15.6 °C 14 °C 1011.5 hPa NW 1.4 km/h 3.2 km/h 90% 0.0 mm 93 W/m2
10:48 15.4 °C 13.8 °C 1011.9 hPa NW 4.7 km/h 4.8 km/h 90% 0.0 mm 118 W/m2
10:53 15.3 °C 13.7 °C 1011.9 hPa West 1.4 km/h 3.2 km/h 90% 0.0 mm 109 W/m2
10:58 15.3 °C 13.8 °C 1011.9 hPa WNW 6.4 km/h 9.7 km/h 91% 0.0 mm 121 W/m2
11:03 15.2 °C 13.9 °C 1011.5 hPa WNW 1.4 km/h 4.8 km/h 92% 0.0 mm 178 W/m2
11:08 15.3 °C 14 °C 1011.5 hPa Calm   9.7 km/h 92% 0.2 mm 195 W/m2
11:13 15.3 °C 14 °C 1011.5 hPa NNW 1.4 km/h 6.4 km/h 92% 0.2 mm 172 W/m2
11:18 15.3 °C 14 °C 1011.9 hPa WNW 4.7 km/h 11.3 km/h 92% 0.2 mm 146 W/m2
11:23 15.3 °C 14 °C 1011.9 hPa Calm   4.8 km/h 92% 0.2 mm 185 W/m2
11:28 15.4 °C 14.1 °C 1011.9 hPa NNE 1.4 km/h 11.3 km/h 92% 0.2 mm 156 W/m2
11:33 15.4 °C 13.9 °C 1011.9 hPa East 1.4 km/h 3.2 km/h 91% 0.2 mm 142 W/m2
11:38 15.4 °C 14.1 °C 1011.9 hPa WNW 3.2 km/h 6.4 km/h 92% 0.2 mm 121 W/m2
11:43 15.4 °C 14.1 °C 1011.9 hPa East 1.4 km/h 3.2 km/h 92% 0.2 mm 97 W/m2
11:48 15.3 °C 14 °C 1011.9 hPa West 3.2 km/h 6.4 km/h 92% 0.2 mm 70 W/m2
11:53 15.2 °C 13.9 °C 1011.9 hPa WNW 3.2 km/h 6.4 km/h 92% 0.2 mm 76 W/m2
11:58 15.2 °C 13.9 °C 1011.9 hPa WNW 1.4 km/h 3.2 km/h 92% 0.2 mm 93 W/m2
12:03 15.2 °C 13.9 °C 1011.9 hPa Calm   3.2 km/h 92% 0.2 mm 77 W/m2
12:08 15.2 °C 14.1 °C 1011.9 hPa Calm   1.6 km/h 93% 0.2 mm 90 W/m2
12:13 15.2 °C 14.1 °C 1011.9 hPa Calm   1.6 km/h 93% 0.2 mm 90 W/m2
12:18 15.2 °C 14.1 °C 1011.9 hPa NNW 1.4 km/h 6.4 km/h 93% 0.2 mm 100 W/m2
12:23 15.1 °C 14 °C 1011.9 hPa North 1.4 km/h 1.6 km/h 93% 0.2 mm 95 W/m2
12:28 15.2 °C 14.1 °C 1011.9 hPa Calm   6.4 km/h 93% 0.2 mm 120 W/m2
12:33 15.3 °C 14.2 °C 1011.9 hPa Calm   1.6 km/h 93% 0.2 mm 79 W/m2
12:38 15.3 °C 14.2 °C 1011.9 hPa Calm   1.6 km/h 93% 0.5 mm 77 W/m2
12:43 15.3 °C 14.2 °C 1011.9 hPa West 3.2 km/h 4.8 km/h 93% 1.0 mm 70 W/m2
12:48 15.2 °C 14.1 °C 1011.9 hPa NNW 1.4 km/h 3.2 km/h 93% 1.5 mm 46 W/m2
12:53 15.1 °C 14 °C 1011.9 hPa Calm   3.2 km/h 93% 2.3 mm 109 W/m2
12:58 15.1 °C 14 °C 1011.9 hPa Calm     93% 2.8 mm 156 W/m2
13:03 15.2 °C 14.2 °C 1011.9 hPa Calm     94% 3.3 mm 176 W/m2
13:08 15.2 °C 14.2 °C 1011.9 hPa NW 3.2 km/h 3.2 km/h 94% 3.6 mm 153 W/m2
13:13 15.3 °C 14.3 °C 1011.9 hPa West 1.4 km/h 3.2 km/h 94% 3.8 mm 121 W/m2
13:18 15.3 °C 14.3 °C 1011.9 hPa Calm   1.6 km/h 94% 4.1 mm 149 W/m2
13:23 15.4 °C 14.4 °C 1011.9 hPa NW 1.4 km/h 3.2 km/h 94% 4.3 mm 155 W/m2
13:28 15.3 °C 14.2 °C 1011.9 hPa West 11.1 km/h 12.9 km/h 93% 4.3 mm 151 W/m2
13:33 15.2 °C 13.9 °C 1011.9 hPa WNW 4.7 km/h 6.4 km/h 92% 4.3 mm 156 W/m2
13:38 15.2 °C 13.9 °C 1011.9 hPa WNW 3.2 km/h 12.9 km/h 92% 4.1 mm 169 W/m2
13:43 15.2 °C 13.9 °C 1011.9 hPa WNW 3.2 km/h 4.8 km/h 92% 3.3 mm 181 W/m2
13:48 15.3 °C 14.2 °C 1011.9 hPa WNW 4.7 km/h 4.8 km/h 93% 2.8 mm 186 W/m2
13:53 15.3 °C 14 °C 1011.9 hPa Calm   4.8 km/h 92% 2.3 mm 176 W/m2
13:58 15.4 °C 14.1 °C 1011.9 hPa West 1.4 km/h 3.2 km/h 92% 1.8 mm 174 W/m2
14:03 15.5 °C 14.2 °C 1011.9 hPa West 3.2 km/h 8 km/h 92% 1.0 mm 199 W/m2
14:08 15.6 °C 14.3 °C 1011.9 hPa WSW 1.4 km/h 6.4 km/h 92% 0.8 mm 207 W/m2
14:13 15.7 °C 14.4 °C 1011.9 hPa Calm   1.6 km/h 92% 0.5 mm 220 W/m2
14:18 15.8 °C 14.7 °C 1011.9 hPa West 1.4 km/h 6.4 km/h 93% 0.5 mm 162 W/m2
14:23 15.9 °C 14.6 °C 1011.9 hPa West 1.4 km/h 4.8 km/h 92% 0.5 mm 84 W/m2
14:28 15.9 °C 14.6 °C 1011.9 hPa WNW 1.4 km/h 4.8 km/h 92% 0.5 mm 118 W/m2
14:33 15.9 °C 14.6 °C 1011.9 hPa West 4.7 km/h 14.5 km/h 92% 0.5 mm 204 W/m2
14:38 15.8 °C 14.3 °C 1011.9 hPa West 13 km/h 14.5 km/h 91% 0.5 mm 309 W/m2
14:44 15.9 °C 14.4 °C 1011.9 hPa WNW 6.4 km/h 12.9 km/h 91% 0.5 mm 357 W/m2
14:49 16.1 °C 14.6 °C 1011.9 hPa West 3.2 km/h 9.7 km/h 91% 0.5 mm 359 W/m2
14:54 16.2 °C 14.6 °C 1011.9 hPa WNW 4.7 km/h 19.3 km/h 90% 0.2 mm 364 W/m2
14:59 16.2 °C 14.6 °C 1011.9 hPa NW 6.4 km/h 12.9 km/h 90% 0.2 mm 227 W/m2
15:04 16.2 °C 14.6 °C 1011.9 hPa NW 3.2 km/h 11.3 km/h 90% 0.2 mm 236 W/m2
15:09 16.2 °C 14.6 °C 1011.9 hPa WNW 7.9 km/h 14.5 km/h 90% 0.2 mm 345 W/m2
15:14 16.1 °C 14.5 °C 1012.2 hPa WNW 13 km/h 19.3 km/h 90% 0.2 mm 302 W/m2
15:19 15.9 °C 14.1 °C 1012.2 hPa WSW 13 km/h 14.5 km/h 89% 0.2 mm 255 W/m2
15:24 15.7 °C 13.7 °C 1012.2 hPa West 11.1 km/h 17.7 km/h 88% 0.0 mm 234 W/m2
15:29 15.6 °C 13.6 °C 1012.2 hPa West 16.3 km/h 16.1 km/h 88% 0.0 mm 267 W/m2
15:34 15.6 °C 13.6 °C 1012.2 hPa West 14.3 km/h 20.9 km/h 88% 0.0 mm 276 W/m2
15:39 15.6 °C 13.4 °C 1012.2 hPa West 11.1 km/h 16.1 km/h 87% 0.0 mm 299 W/m2
15:44 15.6 °C 13.6 °C 1012.2 hPa West 13 km/h 20.9 km/h 88% 0.0 mm 278 W/m2
15:49 15.7 °C 13.7 °C 1012.2 hPa West 14.3 km/h 16.1 km/h 88% 0.0 mm 308 W/m2
15:54 15.7 °C 13.5 °C 1012.2 hPa WNW 4.7 km/h 14.5 km/h 87% 0.0 mm 339 W/m2
15:59 15.7 °C 13.4 °C 1012.2 hPa West 14.3 km/h 20.9 km/h 86% 0.0 mm 471 W/m2
16:04 15.9 °C 13.7 °C 1012.2 hPa West 4.7 km/h 16.1 km/h 87% 0.0 mm 390 W/m2
16:09 16 °C 13.5 °C 1012.2 hPa West 4.7 km/h 16.1 km/h 85% 0.0 mm 489 W/m2
16:14 16.2 °C 13.9 °C 1012.2 hPa WNW 11.1 km/h 16.1 km/h 86% 0.0 mm 427 W/m2
16:19 16.2 °C 13.5 °C 1012.5 hPa West 11.1 km/h 19.3 km/h 84% 0.0 mm 420 W/m2
16:24 16.3 °C 13.8 °C 1012.5 hPa NW 7.9 km/h 16.1 km/h 85% 0.0 mm 401 W/m2
16:29 16.4 °C 13.7 °C 1012.5 hPa NW 6.4 km/h 19.3 km/h 84% 0.0 mm 431 W/m2
16:34 16.4 °C 13.3 °C 1012.5 hPa WSW 6.4 km/h 22.5 km/h 82% 0.0 mm 422 W/m2
16:39 16.6 °C 13.7 °C 1012.5 hPa WNW 14.3 km/h 19.3 km/h 83% 0.0 mm 294 W/m2
16:44 16.5 °C 13.2 °C 1012.9 hPa West 14.3 km/h 19.3 km/h 81% 0.0 mm 237 W/m2
16:49 16.3 °C 13.2 °C 1012.9 hPa WSW 14.3 km/h 16.1 km/h 82% 0.0 mm 271 W/m2
16:54 16.1 °C 13.2 °C 1012.9 hPa WNW 4.7 km/h 20.9 km/h 83% 0.0 mm 155 W/m2
16:59 15.8 °C 13.1 °C 1012.9 hPa WSW 16.3 km/h 25.7 km/h 84% 0.0 mm 176 W/m2
17:04 15.4 °C 13.1 °C 1012.9 hPa West 11.1 km/h 12.9 km/h 86% 0.0 mm 148 W/m2
17:09 15.1 °C 13.1 °C 1012.9 hPa West 19.5 km/h 25.7 km/h 88% 0.0 mm 105 W/m2
17:14 14.9 °C 13.1 °C 1013.2 hPa WNW 6.4 km/h 19.3 km/h 89% 0.0 mm 83 W/m2
17:19 14.7 °C 12.9 °C 1013.2 hPa WNW 6.4 km/h 17.7 km/h 89% 0.0 mm 144 W/m2
17:24 14.6 °C 12.8 °C 1012.9 hPa West 13 km/h 14.5 km/h 89% 0.0 mm 178 W/m2
17:29 14.5 °C 12.7 °C 1013.2 hPa West 6.4 km/h 17.7 km/h 89% 0.0 mm 190 W/m2
17:34 14.6 °C 13 °C 1012.9 hPa West 9.7 km/h 14.5 km/h 90% 0.0 mm 225 W/m2
17:39 14.7 °C 13.1 °C 1012.9 hPa West 4.7 km/h 17.7 km/h 90% 0.0 mm 223 W/m2
17:44 14.8 °C 13 °C 1012.9 hPa WNW 13 km/h 16.1 km/h 89% 0.0 mm 211 W/m2
17:49 14.9 °C 13.1 °C 1012.9 hPa SW 6.4 km/h 11.3 km/h 89% 0.0 mm 214 W/m2
17:54 15.1 °C 13.1 °C 1012.9 hPa WSW 4.7 km/h 14.5 km/h 88% 0.0 mm 199 W/m2
17:59 15.2 °C 13.2 °C 1012.9 hPa West 6.4 km/h 19.3 km/h 88% 0.0 mm 176 W/m2
18:04 15.2 °C 13.2 °C 1013.2 hPa West 11.1 km/h 17.7 km/h 88% 0.0 mm 167 W/m2
18:09 15.2 °C 12.9 °C 1012.9 hPa West 11.1 km/h 16.1 km/h 86% 0.0 mm 134 W/m2
18:14 15.3 °C 13 °C 1013.2 hPa NW 9.7 km/h 12.9 km/h 86% 0.0 mm 137 W/m2
18:19 15.3 °C 12.8 °C 1013.2 hPa West 9.7 km/h 14.5 km/h 85% 0.0 mm 130 W/m2
18:24 15.3 °C 13 °C 1013.2 hPa WNW 6.4 km/h 11.3 km/h 86% 0.0 mm 95 W/m2
18:29 15.2 °C 12.9 °C 1013.2 hPa WSW 6.4 km/h 16.1 km/h 86% 0.0 mm 83 W/m2
18:34 15.2 °C 12.9 °C 1013.2 hPa WNW 13 km/h 17.7 km/h 86% 0.0 mm 98 W/m2
18:39 15.1 °C 12.8 °C 1013.2 hPa West 9.7 km/h 16.1 km/h 86% 0.0 mm 97 W/m2
18:44 15 °C 12.9 °C 1013.2 hPa West 4.7 km/h 17.7 km/h 87% 0.0 mm 90 W/m2
18:49 14.9 °C 12.6 °C 1013.2 hPa NNW 6.4 km/h 17.7 km/h 86% 0.0 mm 74 W/m2
18:54 14.9 °C 12.6 °C 1013.2 hPa West 4.7 km/h 11.3 km/h 86% 0.0 mm 77 W/m2
18:59 14.9 °C 12.6 °C 1013.2 hPa West 4.7 km/h 14.5 km/h 86% 0.0 mm 72 W/m2
19:04 14.8 °C 12.7 °C 1013.2 hPa WSW 4.7 km/h 14.5 km/h 87% 0.0 mm 60 W/m2
19:09 14.7 °C 12.9 °C 1013.5 hPa WSW 6.4 km/h 12.9 km/h 89% 0.0 mm 46 W/m2
19:14 14.5 °C 12.7 °C 1013.5 hPa West 11.1 km/h 16.1 km/h 89% 0.0 mm 30 W/m2
19:19 14.3 °C 12.7 °C 1013.5 hPa West 9.7 km/h 14.5 km/h 90% 0.0 mm 49 W/m2
19:24 14.2 °C 12.8 °C 1013.5 hPa West 17.7 km/h 17.7 km/h 91% 0.0 mm 32 W/m2
19:29 14 °C 12.7 °C 1013.5 hPa West 11.1 km/h 12.9 km/h 92% 0.2 mm 37 W/m2
19:34 13.9 °C 12.6 °C 1013.5 hPa WNW 7.9 km/h 9.7 km/h 92% 0.2 mm 39 W/m2
19:39 13.8 °C 12.5 °C 1013.5 hPa WNW 13 km/h 14.5 km/h 92% 0.5 mm 40 W/m2
19:44 13.8 °C 12.7 °C 1013.5 hPa WSW 17.7 km/h 17.7 km/h 93% 0.5 mm 46 W/m2
19:49 13.7 °C 12.6 °C 1013.5 hPa WSW 9.7 km/h 17.7 km/h 93% 0.5 mm 44 W/m2
19:54 13.7 °C 12.6 °C 1013.5 hPa WNW 4.7 km/h 14.5 km/h 93% 0.5 mm 44 W/m2
19:59 13.8 °C 12.7 °C 1013.5 hPa West 6.4 km/h 17.7 km/h 93% 0.5 mm 42 W/m2
20:04 13.8 °C 12.7 °C 1013.5 hPa WNW 4.7 km/h 11.3 km/h 93% 0.5 mm 39 W/m2
20:09 13.8 °C 12.7 °C 1013.5 hPa West 4.7 km/h 11.3 km/h 93% 0.5 mm 35 W/m2
20:14 13.8 °C 12.7 °C 1013.9 hPa WSW 6.4 km/h 12.9 km/h 93% 0.5 mm 32 W/m2
20:19 13.8 °C 12.7 °C 1013.9 hPa West 4.7 km/h 14.5 km/h 93% 0.5 mm 21 W/m2
20:24 13.8 °C 12.7 °C 1013.9 hPa WNW 4.7 km/h 11.3 km/h 93% 0.5 mm 30 W/m2
20:29 13.8 °C 12.7 °C 1013.9 hPa West 9.7 km/h 14.5 km/h 93% 0.2 mm 25 W/m2
20:34 13.8 °C 12.7 °C 1013.9 hPa West 9.7 km/h 12.9 km/h 93% 0.2 mm 16 W/m2
20:39 13.8 °C 12.7 °C 1013.9 hPa West 6.4 km/h 16.1 km/h 93% 0.0 mm 14 W/m2
20:44 13.7 °C 12.6 °C 1013.9 hPa WSW 6.4 km/h 14.5 km/h 93% 0.0 mm 19 W/m2
20:49 13.7 °C 12.6 °C 1013.9 hPa West 4.7 km/h 11.3 km/h 93% 0.0 mm 14 W/m2
20:54 13.6 °C 12.5 °C 1013.9 hPa West 11.1 km/h 11.3 km/h 93% 0.0 mm 12 W/m2
20:59 13.6 °C 12.5 °C 1013.9 hPa WNW 4.7 km/h 9.7 km/h 93% 0.0 mm 11 W/m2
21:04 13.6 °C 12.7 °C 1013.9 hPa WNW 6.4 km/h 6.4 km/h 94% 0.2 mm 23 W/m2
21:09 13.5 °C 12.6 °C 1013.9 hPa West 6.4 km/h 11.3 km/h 94% 0.2 mm 18 W/m2
21:14 13.5 °C 12.6 °C 1014.2 hPa SSW 6.4 km/h 8 km/h 94% 0.2 mm 12 W/m2
21:19 13.4 °C 12.5 °C 1014.2 hPa West 6.4 km/h 12.9 km/h 94% 0.2 mm 9 W/m2
21:24 13.4 °C 12.3 °C 1014.2 hPa WNW 13 km/h 16.1 km/h 93% 0.2 mm 7 W/m2
21:29 13.4 °C 12.3 °C 1014.2 hPa NW 6.4 km/h 17.7 km/h 93% 0.2 mm 0 W/m2
21:34 13.4 °C 12.1 °C 1014.2 hPa West 16.3 km/h 17.7 km/h 92% 0.2 mm 0 W/m2
21:39 13.4 °C 12.1 °C 1014.6 hPa West 3.2 km/h 12.9 km/h 92% 0.2 mm 0 W/m2
21:44 13.4 °C 12.1 °C 1014.6 hPa WNW 6.4 km/h 12.9 km/h 92% 0.2 mm 0 W/m2
21:49 13.4 °C 12.1 °C 1014.6 hPa WNW 6.4 km/h 9.7 km/h 92% 0.2 mm 0 W/m2
21:54 13.4 °C 12.1 °C 1014.6 hPa WNW 4.7 km/h 9.7 km/h 92% 0.2 mm 0 W/m2
21:59 13.4 °C 12.1 °C 1014.6 hPa West 4.7 km/h 11.3 km/h 92% 0.0 mm 0 W/m2
22:04 13.3 °C 12 °C 1014.6 hPa West 6.4 km/h 9.7 km/h 92% 0.0 mm 0 W/m2
22:09 13.3 °C 12 °C 1014.9 hPa WNW 3.2 km/h 11.3 km/h 92% 0.0 mm 0 W/m2
22:14 13.3 °C 12 °C 1014.9 hPa WSW 3.2 km/h 12.9 km/h 92% 0.0 mm 0 W/m2
22:19 13.3 °C 12.2 °C 1014.9 hPa WSW 4.7 km/h 4.8 km/h 93% 0.0 mm 0 W/m2
22:24 13.3 °C 12.2 °C 1014.9 hPa SW 4.7 km/h 4.8 km/h 93% 0.0 mm 0 W/m2
22:29 13.3 °C 12.2 °C 1014.9 hPa West 6.4 km/h 8 km/h 93% 0.0 mm 0 W/m2
22:34 13.2 °C 12.1 °C 1014.9 hPa WNW 4.7 km/h 8 km/h 93% 0.0 mm 0 W/m2
22:39 13.2 °C 12.1 °C 1014.9 hPa WNW 4.7 km/h 6.4 km/h 93% 0.0 mm 0 W/m2
22:44 13.2 °C 12.1 °C 1014.9 hPa WNW 3.2 km/h 6.4 km/h 93% 0.0 mm 0 W/m2
22:49 13.2 °C 12.1 °C 1014.9 hPa WNW 3.2 km/h 4.8 km/h 93% 0.0 mm 0 W/m2
22:54 13.2 °C 12.1 °C 1014.9 hPa West 4.7 km/h 4.8 km/h 93% 0.0 mm 0 W/m2
22:59 13.3 °C 12.2 °C 1014.9 hPa WSW 4.7 km/h 8 km/h 93% 0.0 mm 0 W/m2
23:04 13.3 °C 12.2 °C 1014.9 hPa West 3.2 km/h 4.8 km/h 93% 0.0 mm 0 W/m2
23:09 13.3 °C 12.2 °C 1015.2 hPa West 1.4 km/h 6.4 km/h 93% 0.0 mm 0 W/m2
23:14 13.3 °C 12.4 °C 1015.2 hPa West 3.2 km/h 6.4 km/h 94% 0.0 mm 0 W/m2
23:19 13.3 °C 12.4 °C 1015.2 hPa West 6.4 km/h 12.9 km/h 94% 0.0 mm 0 W/m2
23:24 13.3 °C 12.4 °C 1015.2 hPa SW 3.2 km/h 6.4 km/h 94% 0.0 mm 0 W/m2
23:29 13.3 °C 12.4 °C 1015.2 hPa West 4.7 km/h 9.7 km/h 94% 0.0 mm 0 W/m2
23:34 13.4 °C 12.5 °C 1015.2 hPa WSW 3.2 km/h 11.3 km/h 94% 0.0 mm 0 W/m2
23:39 13.4 °C 12.5 °C 1015.2 hPa WNW 4.7 km/h 9.7 km/h 94% 0.0 mm 0 W/m2
23:45 13.4 °C 12.5 °C 1014.9 hPa WSW 1.4 km/h 11.3 km/h 94% 0.0 mm 0 W/m2
23:50 13.4 °C 12.5 °C 1015.2 hPa West 3.2 km/h 6.4 km/h 94% 0.0 mm 0 W/m2
23:55 13.4 °C 12.5 °C 1015.2 hPa West 4.7 km/h 8 km/h 94% 0.0 mm 0 W/m2
Juneau County Weather
Compliments of Weather Underground - 4 mb